Fort Morgan, CO

4:51 PM MDT on August 30, 2014 (GMT -0600)
Fort Morgan | Change Station
CLOSE
Current Station
Personal Weather Station
Location: Fort Morgan, CO
Elevation: 4327 ft
Nearby Weather Stations

Elev 4327 ft 40.24 °N, 103.79 °W | Updated 1 second ago

Clear
Clear
90.5 °F
Feels Like 86 °F
N
2.2
Wind Variable Wind from South
Gusts 5.4 mph

Today
High -- | Low -- °F
--% Chance of Precip.
Yesterday
High -- | Low -- °F
Precip. -- in
6:20 AM 7:30 PM
Waxing Crescent, 25% visible
Pressure 29.87 in
Visibility 10.0 miles
Clouds Clear
Heat Index 86 °F
Dew Point 33 °F
Humidity 13%
Rainfall 0.00 in
Snow Depth Not available.
UV 0.0 out of 12
Pollen 10.50 out of 12
Air Quality Not available.
Flu Activity Not available.
METAR KFMM 302235Z AUTO 16006KT 10SM CLR 31/06 A2987 RMK AO2 T03090061 PWINO

More Conditions Fewer Conditions

Pressure 29.87 in
Visibility 10.0 miles
Clouds Clear
Heat Index 86 °F
Dew Point 33 °F
Humidity 13%
Rainfall 0.00 in
Snow Depth Not available.
UV 0.0 out of 12
Pollen 10.50 out of 12
Air Quality Not available.
Flu Activity Not available.
METAR KFMM 302235Z AUTO 16006KT 10SM CLR 31/06 A2987 RMK AO2 T03090061 PWINO

More Conditions Fewer Conditions

10-Day Weather Forecast

Almanac

Astronomy

Aug. 30, 2014 Rise Set
Actual Time 6:20 AM MDT 7:30 PM MDT
Civil Twilight 5:52 AM MDT 7:57 PM MDT
Nautical Twilight 5:19 AM MDT 8:31 PM MDT
Astronomical Twilight 4:44 AM MDT 9:06 PM MDT
Moon 11:11 AM MDT 10:05 PM MDT
Length of Visible Light 14h 05m
Length of Day
13h 09m
Tomorrow will be 2m 33s shorter.
Waxing Crescent, 25% of the Moon is Illuminated
Today
Waxing Crescent
Sep 2
First Quarter
Sep 8
Full
Sep 15
Last Quarter
Sep 24
New

Today's Extremes

State Highs State Lows

Community

WunderPhotos

Upload Photos

1,748,663 photos uploaded!

WunderBlogs® & News

Nearby

Snow Depth

Station Depth Elevation
Niwot 0 in 9910 ft
Berthoud Summit 0 in 11300 ft
Joe Wright 0 in 10120 ft
Rawah 21 in 9020 ft
Willow Creek Pass 0 in 9540 ft

Earthquake Activity

City Distance Mag. Time & Date
No recent earthquake activity has been reported nearby.
Minimum magnitude displayed is 2.5.

Coastal Water Temperatures

Place Temperature
No Stations Reporting

Nearby Weather Stations